Time;durP1;ratioP1;P1;durP2;ratioP2;P2;SDS_P1;SDS_P2;PMS_P1;PMS_P2;Temp;Humidity;BMP_temperature;BMP_pressure;BME280_temperature;BME280_humidity;BME280_pressure;Samples;Min_cycle;Max_cycle;Signal;HPM_P1;HPM_P2
2022/07/26 00:01:12;;;;;;;4.60;2.50;;;;;;;22.59;43.91;99266.25;30735218;28;96693;-67
2022/07/26 00:16:13;;;;;;;4.47;2.53;;;;;;;22.31;44.76;99279.25;30749504;28;97256;-70
2022/07/26 00:31:14;;;;;;;4.43;2.50;;;;;;;22.00;45.80;99240.44;30747244;28;96797;-70
2022/07/26 00:46:14;;;;;;;4.20;2.40;;;;;;;21.85;47.16;99224.94;30746207;28;96708;-70
2022/07/26 01:01:14;;;;;;;4.20;2.60;;;;;;;21.77;47.76;99231.69;30744618;28;96643;-69
2022/07/26 01:16:15;;;;;;;4.50;2.70;;;;;;;21.68;48.34;99241.44;30743149;28;97674;-69
2022/07/26 01:31:16;;;;;;;6.53;3.40;;;;;;;21.57;48.85;99237.88;30742895;28;98331;-69
2022/07/26 01:46:17;;;;;;;7.00;2.80;;;;;;;21.59;49.11;99255.50;30741278;28;97122;-70
2022/07/26 02:01:17;;;;;;;5.47;2.43;;;;;;;21.46;49.58;99251.38;30739356;28;97462;-71
2022/07/26 02:16:17;;;;;;;5.17;2.73;;;;;;;21.45;50.28;99270.59;30738416;28;96793;-67
2022/07/26 02:31:18;;;;;;;7.80;3.37;;;;;;;21.52;50.88;99279.28;30736107;28;96712;-67
2022/07/26 02:46:18;;;;;;;9.67;5.10;;;;;;;20.79;53.92;99367.41;30735590;28;96746;-67
2022/07/26 03:01:19;;;;;;;9.00;6.20;;;;;;;19.72;59.46;99394.06;30734083;28;96688;-68
2022/07/26 03:16:19;;;;;;;9.60;6.15;;;;;;;19.56;62.10;99410.06;30732811;28;97388;-68
2022/07/26 03:31:19;;;;;;;12.43;7.40;;;;;;;19.65;63.62;99417.75;30731567;28;96606;-67
2022/07/26 03:46:20;;;;;;;11.95;9.18;;;;;;;19.71;65.41;99441.03;30752130;28;96704;-67
2022/07/26 04:01:20;;;;;;;12.50;10.40;;;;;;;19.90;67.17;99464.06;30749551;28;109251;-70
2022/07/26 04:16:21;;;;;;;13.60;10.15;;;;;;;20.09;68.33;99496.19;30747706;28;96771;-67
2022/07/26 04:31:22;;;;;;;15.57;9.95;;;;;;;20.26;69.40;99507.78;30744874;28;97583;-69
2022/07/26 04:46:23;;;;;;;9.18;8.18;;;;;;;20.40;69.78;99524.44;30743987;28;96531;-68
2022/07/26 05:01:24;;;;;;;10.47;7.60;;;;;;;20.58;69.40;99552.25;30739702;28;97034;-71
2022/07/26 05:16:24;;;;;;;9.82;6.18;;;;;;;20.99;68.92;99587.13;30721429;28;97060;-68
2022/07/26 05:31:25;;;;;;;9.60;5.43;;;;;;;21.41;67.35;99591.91;30739204;28;97684;-66
2022/07/26 05:46:25;;;;;;;8.53;4.50;;;;;;;21.35;66.13;99599.16;30819381;28;96852;-67
2022/07/26 06:01:25;;;;;;;5.60;4.38;;;;;;;21.04;65.79;99638.66;30853000;28;117354;-67
2022/07/26 06:16:26;;;;;;;9.88;4.18;;;;;;;21.05;65.05;99662.75;30852641;28;97184;-69
2022/07/26 06:31:26;;;;;;;7.85;4.15;;;;;;;20.98;64.67;99685.69;30757789;28;97674;-67
2022/07/26 06:46:26;;;;;;;6.15;4.15;;;;;;;20.95;64.65;99704.06;30729457;28;97157;-69
2022/07/26 07:01:27;;;;;;;6.65;3.58;;;;;;;21.54;63.56;99710.75;30729251;28;96691;-68
2022/07/26 07:16:27;;;;;;;8.07;3.67;;;;;;;21.87;62.22;99733.31;30746025;28;97893;-67
2022/07/26 07:31:28;;;;;;;6.73;3.33;;;;;;;22.65;59.85;99759.22;30729871;28;97442;-66
2022/07/26 07:46:28;;;;;;;8.07;3.77;;;;;;;23.22;58.00;99765.78;30727847;28;96899;-64
2022/07/26 08:01:28;;;;;;;4.97;2.67;;;;;;;23.53;55.85;99768.66;30721269;28;97088;-70
2022/07/26 08:16:29;;;;;;;6.88;2.60;;;;;;;23.92;54.15;99773.69;30721307;28;97467;-71
2022/07/26 08:31:29;;;;;;;6.25;2.60;;;;;;;24.12;53.36;99788.41;30741194;28;97812;-71
2022/07/26 08:46:32;;;;;;;;;;;;;;;24.41;51.81;99796.03;30745152;28;96729;-69
2022/07/26 09:01:33;;;;;;;5.93;2.10;;;;;;;24.82;50.54;99815.09;30741890;28;96696;-67
2022/07/26 09:16:33;;;;;;;5.57;2.17;;;;;;;25.28;49.16;99817.72;30740178;28;96815;-72
2022/07/26 09:31:35;;;;;;;8.15;2.80;;;;;;;25.78;47.56;99826.03;30741135;28;96661;-68
2022/07/26 09:46:51;;;;;;;6.83;2.37;;;;;;;25.88;45.78;99827.06;30734733;28;97708;-67
2022/07/26 10:01:54;;;;;;;6.10;2.23;;;;;;;25.97;45.02;99848.03;30726865;28;96797;-67
2022/07/26 10:16:55;;;;;;;9.63;1.90;;;;;;;26.02;43.99;99860.84;30735674;28;96690;-68
2022/07/26 10:32:01;;;;;;;4.78;1.73;;;;;;;26.18;42.12;99859.66;30734287;28;96717;-68
2022/07/26 10:47:07;;;;;;;5.17;1.73;;;;;;;26.53;41.54;99854.22;30730397;28;96866;-66
2022/07/26 11:02:17;;;;;;;4.87;2.00;;;;;;;26.98;40.16;99843.22;30730788;28;96941;-68
2022/07/26 11:17:28;;;;;;;2.53;1.70;;;;;;;26.52;39.37;99863.53;30730550;28;97284;-69
2022/07/26 11:32:28;;;;;;;6.80;1.80;;;;;;;26.39;39.64;99866.91;30730076;28;96816;-70
2022/07/26 11:47:29;;;;;;;6.20;1.90;;;;;;;26.53;39.83;99856.94;30728599;28;96731;-72
2022/07/26 12:02:29;;;;;;;6.28;1.90;;;;;;;26.84;39.51;99854.00;30739519;28;96763;-68
2022/07/26 12:17:30;;;;;;;7.28;1.85;;;;;;;26.48;39.75;99851.56;30747610;28;96814;-71
2022/07/26 12:32:40;;;;;;;5.47;2.47;;;;;;;25.83;40.41;99841.53;30744807;28;97836;-67
2022/07/26 12:47:43;;;;;;;5.27;2.10;;;;;;;25.10;41.47;99837.41;30743895;28;98065;-69
2022/07/26 13:02:44;;;;;;;4.87;2.10;;;;;;;24.91;42.17;99832.53;30741208;28;97779;-70
2022/07/26 13:17:44;;;;;;;5.20;2.80;;;;;;;25.76;41.36;99830.94;30740024;28;96716;-70
2022/07/26 13:32:44;;;;;;;7.72;2.50;;;;;;;25.71;41.03;99844.59;30733620;28;97521;-72
2022/07/26 13:47:45;;;;;;;5.15;2.60;;;;;;;24.87;41.44;99853.25;30730963;28;97287;-68
2022/07/26 14:02:46;;;;;;;6.00;2.38;;;;;;;24.27;43.20;99861.88;30736559;28;97594;-68
2022/07/26 14:17:46;;;;;;;5.60;2.17;;;;;;;24.53;43.09;99845.59;30735337;28;96772;-69
2022/07/26 14:32:48;;;;;;;3.90;2.07;;;;;;;26.40;40.89;99833.03;30733898;28;97397;-70
2022/07/26 14:47:48;;;;;;;7.45;2.85;;;;;;;26.43;40.25;99829.75;30721885;28;96758;-70
2022/07/26 15:02:49;;;;;;;7.18;2.50;;;;;;;26.51;39.66;99816.28;30722431;28;96857;-73
2022/07/26 15:17:50;;;;;;;5.05;2.35;;;;;;;26.51;39.65;99812.75;30721043;28;97963;-71
2022/07/26 15:32:51;;;;;;;9.67;2.70;;;;;;;26.14;40.08;99816.84;30728657;28;97475;-69
2022/07/26 15:47:51;;;;;;;3.73;2.10;;;;;;;26.08;38.44;99807.03;30738459;28;97218;-68
2022/07/26 16:02:52;;;;;;;5.70;1.90;;;;;;;26.09;36.22;99797.75;30738908;28;96766;-68
2022/07/26 16:17:52;;;;;;;6.63;2.35;;;;;;;25.60;36.65;99794.75;30737121;28;97474;-69
2022/07/26 16:32:53;;;;;;;4.10;2.30;;;;;;;25.40;36.84;99800.28;30734314;28;97192;-68
2022/07/26 16:47:53;;;;;;;3.72;1.98;;;;;;;25.18;37.19;99804.16;30734297;28;96803;-69
2022/07/26 17:02:54;;;;;;;5.57;2.75;;;;;;;24.66;39.25;99806.97;30732610;28;97144;-69
2022/07/26 17:17:54;;;;;;;3.92;2.50;;;;;;;24.28;40.98;99811.00;30731626;28;97324;-69
2022/07/26 17:32:54;;;;;;;4.68;1.98;;;;;;;24.36;40.14;99817.81;30730416;28;97261;-67
2022/07/26 17:47:55;;;;;;;3.58;1.70;;;;;;;24.08;39.93;99822.69;30729377;28;96834;-68
2022/07/26 18:02:56;;;;;;;3.35;1.65;;;;;;;23.83;39.23;99835.09;30727725;28;97212;-69
2022/07/26 18:17:56;;;;;;;4.67;1.70;;;;;;;23.61;38.91;99838.81;30727488;28;97751;-67
2022/07/26 18:32:58;;;;;;;4.22;1.38;;;;;;;23.44;39.06;99841.75;30736703;28;105918;-69
2022/07/26 18:47:58;;;;;;;5.47;1.70;;;;;;;23.31;39.24;99859.34;30719714;28;97026;-67
2022/07/26 19:02:59;;;;;;;;;;;;;;;23.07;39.54;99871.66;30721676;28;96810;-67
2022/07/26 19:18:08;;;;;;;4.67;1.83;;;;;;;22.70;40.07;99877.88;30723564;28;97143;-70
2022/07/26 19:33:09;;;;;;;2.37;1.53;;;;;;;22.29;41.64;99922.53;30717251;28;97700;-70
2022/07/26 19:48:09;;;;;;;5.47;1.43;;;;;;;22.13;45.61;99940.50;30718114;28;97954;-82
2022/07/26 20:03:10;;;;;;;3.97;1.43;;;;;;;22.32;46.36;99948.31;30714444;28;97206;-66
2022/07/26 20:18:10;;;;;;;4.10;1.73;;;;;;;22.31;46.73;99952.13;30723659;28;96721;-63
2022/07/26 20:33:10;;;;;;;3.30;1.33;;;;;;;22.05;47.73;99959.09;30738254;28;97266;-71
2022/07/26 20:48:11;;;;;;;4.57;1.87;;;;;;;21.82;47.96;99977.28;30736175;28;97261;-67
2022/07/26 21:03:12;;;;;;;5.97;2.00;;;;;;;21.55;49.53;99993.41;30734237;28;97346;-68
2022/07/26 21:18:13;;;;;;;3.63;1.60;;;;;;;21.25;51.02;100005.38;30733664;28;97203;-68
2022/07/26 21:33:13;;;;;;;4.83;1.80;;;;;;;21.02;52.24;100011.75;30733617;28;97604;-64
2022/07/26 21:48:14;;;;;;;3.47;1.53;;;;;;;20.72;53.48;100035.31;30735094;28;97598;-64
2022/07/26 22:03:14;;;;;;;4.03;1.50;;;;;;;20.57;53.99;100038.53;30738043;28;96913;-63
2022/07/26 22:18:15;;;;;;;4.95;1.58;;;;;;;20.24;55.00;100050.84;30739650;28;96704;-64
2022/07/26 22:33:16;;;;;;;3.23;1.30;;;;;;;19.91;56.26;100044.13;30738130;28;97359;-64
2022/07/26 22:48:16;;;;;;;2.40;1.20;;;;;;;19.68;57.19;100053.03;30736233;28;96913;-63
2022/07/26 23:03:18;;;;;;;2.08;1.30;;;;;;;19.37;58.33;100063.09;30735083;28;97368;-64
2022/07/26 23:18:19;;;;;;;3.10;1.43;;;;;;;19.21;58.88;100059.19;30734649;28;97539;-65
2022/07/26 23:33:19;;;;;;;4.15;1.45;;;;;;;19.04;59.71;100053.63;30733086;28;96720;-67
2022/07/26 23:48:19;;;;;;;4.63;1.80;;;;;;;18.83;61.18;100062.19;30733443;28;96769;-64
